createdAt,value
2018-03-25T00:00:33.239Z,82.40
2018-03-25T00:01:33.088Z,82.31
2018-03-25T00:02:33.119Z,82.21
2018-03-25T00:03:32.913Z,82.21
2018-03-25T00:04:32.925Z,82.88
2018-03-25T00:05:32.782Z,82.21
2018-03-25T00:06:32.765Z,82.88
2018-03-25T00:07:32.586Z,82.88
2018-03-25T00:08:32.535Z,82.50
2018-03-25T00:09:32.430Z,82.88
2018-03-25T00:10:32.453Z,82.97
2018-03-25T00:11:32.340Z,83.07
2018-03-25T00:12:32.298Z,83.36
2018-03-25T00:13:32.129Z,83.64
2018-03-25T00:14:32.172Z,83.83
2018-03-25T00:15:31.979Z,83.92
2018-03-25T00:16:31.987Z,84.30
2018-03-25T00:17:31.809Z,84.17
2018-03-25T00:18:31.795Z,84.49
2018-03-25T00:19:31.612Z,84.30
2018-03-25T00:20:31.599Z,84.68
2018-03-25T00:21:31.469Z,84.21
2018-03-25T00:22:31.406Z,84.36
2018-03-25T00:23:31.299Z,84.92
2018-03-25T00:24:31.319Z,84.74
2018-03-25T00:25:31.139Z,84.64
2018-03-25T00:26:31.124Z,84.74
2018-03-25T00:27:30.964Z,84.83
2018-03-25T00:28:30.973Z,84.74
2018-03-25T00:29:30.795Z,84.83
2018-03-25T00:30:30.748Z,85.11
2018-03-25T00:31:30.648Z,85.21
2018-03-25T00:32:30.664Z,85.30
2018-03-25T00:33:30.480Z,85.49
2018-03-25T00:34:30.473Z,85.59
2018-03-25T00:35:30.306Z,86.11
2018-03-25T00:36:30.310Z,86.87
2018-03-25T00:37:30.139Z,87.16
2018-03-25T00:38:30.115Z,87.16
2018-03-25T00:39:29.973Z,87.45
2018-03-25T00:40:30.003Z,87.54
2018-03-25T00:41:29.828Z,87.73
2018-03-25T00:42:29.836Z,87.45
2018-03-25T00:43:29.656Z,87.35
2018-03-25T00:44:29.614Z,87.54
2018-03-25T00:45:29.482Z,87.45
2018-03-25T00:46:29.535Z,87.63
2018-03-25T00:47:29.466Z,88.29
2018-03-25T00:48:29.361Z,88.10
2018-03-25T00:49:29.152Z,88.58
2018-03-25T00:50:29.746Z,88.58
2018-03-25T00:51:28.978Z,88.20
2018-03-25T00:52:28.948Z,88.58
2018-03-25T00:53:28.846Z,87.58
2018-03-25T00:54:28.887Z,87.11
2018-03-25T00:55:28.655Z,87.58
2018-03-25T00:56:28.665Z,87.77
2018-03-25T00:57:28.490Z,87.68
2018-03-25T00:58:28.473Z,87.30
2018-03-25T00:59:28.339Z,87.11
2018-03-25T01:00:28.274Z,86.72
2018-03-25T01:01:28.157Z,86.44
2018-03-25T01:02:28.232Z,86.07
2018-03-25T01:03:27.998Z,86.25
2018-03-25T01:04:28.008Z,85.87
2018-03-25T01:05:27.828Z,86.25
2018-03-25T01:06:27.818Z,85.87
2018-03-25T01:07:27.799Z,85.87
2018-03-25T01:08:27.716Z,85.87
2018-03-25T01:09:27.506Z,85.78
2018-03-25T01:10:27.589Z,86.16
2018-03-25T01:11:27.364Z,85.87
2018-03-25T01:12:27.352Z,85.68
2018-03-25T01:13:27.196Z,85.97
2018-03-25T01:14:27.140Z,85.68
2018-03-25T01:15:27.039Z,85.78
2018-03-25T01:16:27.057Z,86.07
2018-03-25T01:17:26.869Z,86.82
2018-03-25T01:18:26.893Z,86.25
2018-03-25T01:19:26.691Z,86.07
2018-03-25T01:20:26.667Z,86.16
2018-03-25T01:21:26.547Z,86.07
2018-03-25T01:22:26.475Z,85.68
2018-03-25T01:23:26.341Z,86.07
2018-03-25T01:26:08.194Z,86.91
2018-03-25T01:27:08.181Z,86.72
2018-03-25T01:28:08.003Z,87.11
2018-03-25T01:29:07.988Z,87.20
2018-03-25T01:30:07.840Z,87.73
2018-03-25T01:31:07.854Z,87.63
2018-03-25T01:32:07.664Z,87.77
2018-03-25T01:33:07.707Z,87.39
2018-03-25T01:34:07.522Z,87.45
2018-03-25T01:35:07.541Z,87.82
2018-03-25T01:36:07.359Z,87.63
2018-03-25T01:37:07.327Z,87.45
2018-03-25T01:38:07.174Z,87.73
2018-03-25T01:39:07.134Z,87.54
2018-03-25T01:40:07.025Z,87.35
2018-03-25T01:41:07.043Z,87.54
2018-03-25T01:42:06.860Z,87.63
2018-03-25T01:43:06.848Z,87.82
2018-03-25T01:44:06.679Z,87.63
2018-03-25T01:45:06.656Z,87.92
2018-03-25T01:46:06.520Z,88.01
2018-03-25T01:47:06.500Z,87.73
2018-03-25T01:48:06.364Z,87.54
2018-03-25T01:49:06.382Z,87.01
2018-03-25T01:50:06.190Z,85.68
2018-03-25T01:51:06.203Z,85.78
2018-03-25T01:52:06.042Z,85.78
2018-03-25T01:53:05.996Z,85.21
2018-03-25T01:54:05.859Z,85.68
2018-03-25T01:55:05.911Z,85.87
2018-03-25T01:56:05.731Z,86.16
2018-03-25T01:57:05.743Z,86.35
2018-03-25T01:58:05.536Z,86.07
2018-03-25T01:59:05.533Z,85.68
2018-03-25T02:00:05.369Z,86.07
2018-03-25T02:01:05.440Z,86.63
2018-03-25T02:02:05.220Z,86.59
2018-03-25T02:03:05.173Z,87.63
2018-03-25T02:04:05.045Z,87.73
2018-03-25T02:05:05.055Z,87.45
2018-03-25T02:06:05.693Z,88.20
2018-03-25T02:07:04.880Z,87.25
2018-03-25T02:08:04.726Z,86.68
2018-03-25T02:09:04.669Z,86.68
2018-03-25T02:10:04.542Z,86.78
2018-03-25T02:11:04.582Z,87.06
2018-03-25T02:12:04.377Z,86.68
2018-03-25T02:13:04.429Z,87.73
2018-03-25T02:14:04.208Z,87.54
2018-03-25T02:15:04.197Z,87.73
2018-03-25T02:16:04.052Z,88.01
2018-03-25T02:17:04.010Z,88.68
2018-03-25T02:18:03.905Z,89.15
2018-03-25T02:19:03.916Z,88.87
2018-03-25T02:20:03.733Z,89.67
2018-03-25T02:21:03.726Z,89.39
2018-03-25T02:22:03.576Z,89.58
2018-03-25T02:23:03.557Z,89.58
2018-03-25T02:24:03.396Z,89.77
2018-03-25T02:25:03.352Z,89.77
2018-03-25T02:26:03.236Z,90.34
2018-03-25T02:27:03.253Z,90.34
2018-03-25T02:28:03.078Z,90.15
2018-03-25T02:29:03.089Z,90.91
2018-03-25T02:30:02.891Z,90.62
2018-03-25T02:31:02.870Z,90.62
2018-03-25T02:32:02.737Z,90.91
2018-03-25T02:33:02.706Z,90.43
2018-03-25T02:34:02.575Z,90.72
2018-03-25T02:35:02.583Z,90.43
2018-03-25T02:36:02.405Z,90.72
2018-03-25T02:37:02.395Z,90.62
2018-03-25T02:38:02.239Z,90.62
2018-03-25T02:39:02.237Z,91.00
2018-03-25T02:40:02.748Z,90.72
2018-03-25T02:41:02.116Z,90.81
2018-03-25T02:42:01.905Z,91.09
2018-03-25T02:43:01.945Z,91.00
2018-03-25T02:44:01.779Z,91.47
2018-03-25T02:45:01.732Z,90.43
2018-03-25T02:46:01.583Z,90.34
2018-03-25T02:47:01.539Z,90.62
2018-03-25T02:48:01.404Z,90.72
2018-03-25T02:49:01.380Z,90.81
2018-03-25T02:50:01.295Z,90.53
2018-03-25T02:51:01.258Z,90.62
2018-03-25T02:52:01.080Z,90.62
2018-03-25T02:53:01.082Z,90.43
2018-03-25T02:54:00.918Z,90.72
2018-03-25T02:55:00.918Z,91.00
2018-03-25T02:56:00.750Z,91.09
2018-03-25T02:57:00.784Z,90.81
2018-03-25T02:58:00.580Z,90.81
2018-03-25T02:59:00.599Z,90.72
2018-03-25T03:00:01.265Z,90.81
2018-03-25T03:01:00.436Z,90.72
2018-03-25T03:02:00.250Z,90.72
2018-03-25T03:03:00.237Z,90.91
2018-03-25T03:04:00.092Z,90.81
2018-03-25T03:05:00.071Z,90.72
2018-03-25T03:05:59.938Z,90.72
2018-03-25T03:06:59.934Z,90.53
2018-03-25T03:07:59.759Z,91.00
2018-03-25T03:08:59.743Z,91.28
2018-03-25T03:09:59.585Z,91.09
2018-03-25T03:10:59.591Z,91.57
2018-03-25T03:11:59.426Z,91.57
2018-03-25T03:12:59.466Z,91.95
2018-03-25T03:13:59.302Z,91.19
2018-03-25T03:16:41.195Z,91.76
2018-03-25T03:17:41.162Z,91.57
2018-03-25T03:18:41.015Z,91.57
2018-03-25T03:19:40.968Z,91.66
2018-03-25T03:20:40.853Z,91.47
2018-03-25T03:21:40.926Z,91.76
2018-03-25T03:22:40.679Z,91.95
2018-03-25T03:23:40.710Z,91.52
2018-03-25T03:24:40.513Z,91.33
2018-03-25T03:25:40.507Z,92.00
2018-03-25T03:26:40.395Z,91.90
2018-03-25T03:27:40.353Z,92.38
2018-03-25T03:28:40.185Z,91.81
2018-03-25T03:29:40.212Z,92.00
2018-03-25T03:30:40.047Z,91.71
2018-03-25T03:31:40.071Z,92.57
2018-03-25T03:32:39.866Z,92.09
2018-03-25T03:33:39.936Z,92.09
2018-03-25T03:34:39.699Z,92.57
2018-03-25T03:35:39.654Z,92.47
2018-03-25T03:36:39.519Z,92.09
2018-03-25T03:37:39.598Z,92.09
2018-03-25T03:38:39.360Z,92.47
2018-03-25T03:39:39.360Z,93.13
2018-03-25T03:40:39.190Z,93.04
2018-03-25T03:41:39.169Z,92.66
2018-03-25T03:42:39.039Z,92.94
2018-03-25T03:43:38.987Z,93.13
2018-03-25T03:44:38.872Z,92.85
2018-03-25T03:47:20.699Z,92.09
2018-03-25T03:48:20.684Z,92.28
2018-03-25T03:49:20.510Z,92.28
2018-03-25T03:50:20.490Z,92.09
2018-03-25T03:51:20.347Z,92.57
2018-03-25T03:52:20.342Z,92.19
2018-03-25T03:53:20.196Z,92.09
2018-03-25T03:54:20.206Z,92.47
2018-03-25T03:55:20.014Z,92.00
2018-03-25T03:56:20.020Z,92.28
2018-03-25T03:57:19.970Z,92.38
2018-03-25T03:58:19.826Z,92.09
2018-03-25T03:59:19.692Z,92.47
2018-03-25T04:00:19.641Z,92.57
2018-03-25T04:01:19.522Z,92.38
2018-03-25T04:02:19.560Z,92.47
2018-03-25T04:03:19.369Z,93.04
2018-03-25T04:04:19.356Z,93.13
2018-03-25T04:05:19.198Z,92.85
2018-03-25T04:06:19.157Z,93.04
2018-03-25T04:07:19.034Z,92.94
2018-03-25T04:08:19.002Z,92.85
2018-03-25T04:09:18.914Z,93.04
2018-03-25T04:10:18.897Z,92.94
2018-03-25T04:11:18.710Z,92.76
2018-03-25T04:12:18.684Z,93.32
2018-03-25T04:13:18.533Z,93.13
2018-03-25T04:14:18.502Z,93.13
2018-03-25T04:15:18.365Z,93.23
2018-03-25T04:16:18.411Z,93.32
2018-03-25T04:17:18.203Z,93.32
2018-03-25T04:18:18.245Z,93.13
2018-03-25T04:19:18.033Z,93.04
2018-03-25T04:20:18.132Z,93.04
2018-03-25T04:21:17.865Z,93.13
2018-03-25T04:22:17.829Z,93.51
2018-03-25T04:23:17.719Z,93.61
2018-03-25T04:24:17.692Z,92.85
2018-03-25T04:25:17.534Z,93.32
2018-03-25T04:26:17.546Z,93.04
2018-03-25T04:27:17.367Z,93.23
2018-03-25T04:28:17.356Z,93.42
2018-03-25T04:29:17.215Z,93.61
2018-03-25T04:30:17.164Z,93.13
2018-03-25T04:31:17.032Z,93.42
2018-03-25T04:32:17.083Z,93.56
2018-03-25T04:33:16.898Z,93.65
2018-03-25T04:34:16.885Z,94.04
2018-03-25T04:35:16.709Z,93.94
2018-03-25T04:36:16.698Z,94.23
2018-03-25T04:37:16.536Z,94.23
2018-03-25T04:38:16.504Z,94.04
2018-03-25T04:39:16.387Z,94.51
2018-03-25T04:40:16.411Z,94.42
2018-03-25T04:41:16.222Z,94.70
2018-03-25T04:42:16.218Z,94.51
2018-03-25T04:43:16.040Z,94.60
2018-03-25T04:44:16.061Z,95.17
2018-03-25T04:45:15.872Z,95.07
2018-03-25T04:46:15.835Z,95.26
2018-03-25T04:47:15.746Z,94.98
2018-03-25T04:48:15.745Z,95.17
2018-03-25T04:49:15.567Z,95.07
2018-03-25T04:50:15.566Z,94.98
2018-03-25T04:51:15.380Z,94.79
2018-03-25T04:52:15.366Z,95.07
2018-03-25T04:53:15.207Z,95.07
2018-03-25T04:54:15.175Z,95.45
2018-03-25T04:55:15.058Z,94.79
2018-03-25T04:56:15.082Z,94.98
2018-03-25T04:57:14.870Z,95.07
2018-03-25T04:58:14.951Z,94.89
2018-03-25T04:59:14.709Z,95.17
2018-03-25T05:00:14.731Z,95.17
2018-03-25T05:01:14.540Z,95.07
2018-03-25T05:02:14.515Z,95.07
2018-03-25T05:03:14.385Z,94.89
2018-03-25T05:04:14.424Z,94.60
2018-03-25T05:05:14.208Z,94.60
2018-03-25T05:06:14.270Z,94.51
2018-03-25T05:07:14.054Z,94.42
2018-03-25T05:08:14.041Z,94.51
2018-03-25T05:09:13.873Z,94.13
2018-03-25T05:10:13.962Z,94.13
2018-03-25T05:11:13.704Z,94.04
2018-03-25T05:12:13.655Z,94.46
2018-03-25T05:13:13.560Z,94.42
2018-03-25T05:14:13.565Z,94.23
2018-03-25T05:15:13.375Z,94.13
2018-03-25T05:16:13.372Z,94.23
2018-03-25T05:17:13.218Z,93.84
2018-03-25T05:18:13.218Z,94.23
2018-03-25T05:19:13.047Z,93.84
2018-03-25T05:20:13.198Z,93.84
2018-03-25T05:21:12.891Z,93.56
2018-03-25T05:22:12.903Z,94.42
2018-03-25T05:23:12.730Z,94.23
2018-03-25T05:24:12.711Z,94.13
2018-03-25T05:25:12.558Z,94.32
2018-03-25T05:26:12.552Z,93.94
2018-03-25T05:27:12.370Z,93.84
2018-03-25T05:28:12.327Z,94.23
2018-03-25T05:29:12.231Z,93.94
2018-03-25T05:30:12.242Z,93.94
2018-03-25T05:31:12.062Z,94.04
2018-03-25T05:32:12.049Z,94.13
2018-03-25T05:33:11.883Z,93.84
2018-03-25T05:34:11.868Z,93.94
2018-03-25T05:35:11.712Z,94.08
2018-03-25T05:36:11.699Z,93.56
2018-03-25T05:37:11.552Z,93.56
2018-03-25T05:38:11.581Z,93.42
2018-03-25T05:39:11.382Z,94.08
2018-03-25T05:40:11.403Z,93.99
2018-03-25T05:41:11.215Z,94.27
2018-03-25T05:42:11.289Z,94.18
2018-03-25T05:43:11.044Z,93.80
2018-03-25T05:44:11.100Z,93.32
2018-03-25T05:45:10.873Z,93.61
2018-03-25T05:46:11.773Z,93.42
2018-03-25T05:47:10.727Z,93.42
2018-03-25T05:48:10.791Z,93.42
2018-03-25T05:49:10.572Z,93.70
2018-03-25T05:50:10.601Z,93.13
2018-03-25T05:51:10.381Z,93.89
2018-03-25T05:52:10.419Z,93.51
2018-03-25T05:53:10.214Z,94.18
2018-03-25T05:54:10.351Z,94.18
2018-03-25T05:55:10.048Z,94.42
2018-03-25T05:56:10.131Z,93.94
2018-03-25T05:57:09.970Z,94.51
2018-03-25T05:59:51.718Z,94.51
2018-03-25T06:00:51.754Z,94.23
2018-03-25T06:01:51.529Z,94.32
2018-03-25T06:02:51.640Z,94.51
2018-03-25T06:03:51.378Z,94.70
2018-03-25T06:08:57.351Z,94.70
2018-03-25T06:09:57.131Z,94.79
2018-03-25T06:10:57.242Z,96.07
2018-03-25T06:11:56.948Z,95.79
2018-03-25T06:12:57.041Z,94.37
2018-03-25T06:13:56.804Z,94.18
2018-03-25T06:14:56.873Z,94.18
2018-03-25T06:15:56.661Z,93.51
2018-03-25T06:16:56.654Z,93.89
2018-03-25T06:17:56.464Z,94.56
2018-03-25T06:18:56.582Z,93.61
2018-03-25T06:19:56.297Z,93.89
2018-03-25T06:20:56.371Z,93.23
2018-03-25T06:21:56.108Z,93.42
2018-03-25T06:22:56.287Z,93.32
2018-03-25T06:23:55.958Z,94.74
2018-03-25T06:24:56.533Z,93.27
2018-03-25T06:25:55.788Z,93.08
2018-03-25T06:28:37.700Z,92.19
2018-03-25T06:29:37.832Z,92.94
2018-03-25T06:30:37.565Z,93.75
2018-03-25T06:31:37.604Z,92.71
2018-03-25T06:32:37.377Z,90.72
2018-03-25T06:35:19.220Z,90.81
2018-03-25T06:36:19.312Z,90.72
2018-03-25T06:37:19.110Z,90.72
2018-03-25T06:38:19.123Z,91.28
2018-03-25T06:39:18.862Z,91.61
2018-03-25T06:40:21.013Z,90.05
2018-03-25T06:41:18.701Z,90.00
2018-03-25T06:42:18.654Z,89.81
2018-03-25T06:43:18.531Z,89.53
2018-03-25T06:44:18.579Z,89.81
2018-03-25T06:45:18.389Z,89.86
2018-03-25T06:46:18.424Z,90.00
2018-03-25T06:47:18.213Z,89.34
2018-03-25T06:48:18.181Z,89.20
2018-03-25T06:49:18.036Z,89.86
2018-03-25T06:50:17.997Z,90.00
2018-03-25T06:51:17.889Z,89.25
2018-03-25T06:52:17.897Z,89.34
2018-03-25T06:53:17.713Z,88.96
2018-03-25T06:54:17.706Z,89.20
2018-03-25T06:55:17.537Z,89.58
2018-03-25T06:56:17.541Z,89.39
2018-03-25T06:57:17.419Z,89.72
2018-03-25T06:58:17.326Z,89.10
2018-03-25T06:59:17.212Z,86.72
2018-03-25T07:00:17.243Z,85.59
2018-03-25T07:01:17.056Z,85.68
2018-03-25T07:02:17.075Z,85.59
2018-03-25T07:03:16.877Z,85.49
2018-03-25T07:04:16.854Z,83.39
2018-03-25T07:05:16.709Z,82.20
2018-03-25T07:06:16.770Z,81.01
2018-03-25T07:07:16.570Z,79.39
2018-03-25T07:08:16.583Z,77.72
2018-03-25T07:09:16.389Z,76.82
2018-03-25T07:10:16.381Z,78.34
2018-03-25T07:11:16.223Z,76.92
2018-03-25T07:12:16.222Z,77.11
2018-03-25T07:13:16.064Z,78.63
2018-03-25T07:14:16.100Z,77.97
2018-03-25T07:15:15.902Z,77.20
2018-03-25T07:16:15.934Z,77.68
2018-03-25T07:17:15.752Z,77.30
2018-03-25T07:18:15.714Z,77.30
2018-03-25T07:19:15.583Z,77.68
2018-03-25T07:20:15.520Z,76.96
2018-03-25T07:21:15.413Z,76.48
2018-03-25T07:22:15.474Z,75.72
2018-03-25T07:23:15.260Z,75.09
2018-03-25T07:24:15.256Z,73.07
2018-03-25T07:25:15.094Z,70.69
2018-03-25T07:26:15.053Z,68.91
2018-03-25T07:27:14.952Z,67.61
2018-03-25T07:28:14.985Z,65.89
2018-03-25T07:29:14.771Z,65.80
2018-03-25T07:30:14.815Z,65.23
2018-03-25T07:31:14.610Z,64.47
2018-03-25T07:32:14.585Z,64.94
2018-03-25T07:33:14.498Z,64.59
2018-03-25T07:34:14.491Z,64.09
2018-03-25T07:35:14.290Z,64.21
2018-03-25T07:36:14.310Z,64.25
2018-03-25T07:37:14.131Z,63.70
2018-03-25T07:38:14.142Z,62.01
2018-03-25T07:39:13.984Z,61.35
2018-03-25T07:40:14.041Z,59.91
2018-03-25T07:41:13.820Z,60.20
2018-03-25T07:42:13.858Z,60.42
2018-03-25T07:43:13.691Z,59.18
2018-03-25T07:44:13.673Z,57.07
2018-03-25T07:45:13.509Z,56.98
2018-03-25T07:46:13.557Z,56.60
2018-03-25T07:47:13.349Z,56.60
2018-03-25T07:48:13.419Z,56.79
2018-03-25T07:49:13.193Z,57.62
2018-03-25T07:50:13.166Z,59.69
2018-03-25T07:51:13.037Z,60.68
2018-03-25T07:52:13.088Z,60.52
2018-03-25T07:53:12.902Z,57.77
2018-03-25T07:54:12.885Z,56.43
2018-03-25T07:55:12.728Z,56.27
2018-03-25T07:56:12.696Z,55.41
2018-03-25T07:57:12.573Z,55.41
2018-03-25T07:58:12.629Z,54.71
2018-03-25T07:59:12.408Z,56.15
2018-03-25T08:00:12.412Z,56.24
2018-03-25T08:01:12.304Z,54.26
2018-03-25T08:02:12.224Z,54.55
2018-03-25T08:03:12.138Z,54.43
2018-03-25T08:04:12.133Z,54.80
2018-03-25T08:05:11.946Z,55.64
2018-03-25T08:06:11.940Z,56.72
2018-03-25T08:07:11.782Z,56.53
2018-03-25T08:08:11.756Z,55.83
2018-03-25T08:09:11.756Z,56.98
2018-03-25T08:10:11.661Z,56.24
2018-03-25T08:11:11.474Z,56.62
2018-03-25T08:12:11.563Z,55.76
2018-03-25T08:13:11.323Z,55.57
2018-03-25T08:14:11.312Z,55.67
2018-03-25T08:15:11.185Z,56.21
2018-03-25T08:16:11.221Z,56.24
2018-03-25T08:17:11.016Z,54.83
2018-03-25T08:18:10.990Z,54.28
2018-03-25T08:19:10.892Z,53.07
2018-03-25T08:20:10.906Z,51.51
2018-03-25T08:21:10.703Z,52.85
2018-03-25T08:22:10.711Z,54.26
2018-03-25T08:23:10.555Z,54.93
2018-03-25T08:24:10.556Z,55.12
2018-03-25T08:25:10.395Z,53.59
2018-03-25T08:26:10.429Z,52.97
2018-03-25T08:27:10.296Z,51.63
2018-03-25T08:28:10.234Z,51.89
2018-03-25T08:29:10.109Z,52.40
2018-03-25T08:30:10.084Z,50.99
2018-03-25T08:31:09.941Z,50.32
2018-03-25T08:32:10.062Z,50.29
2018-03-25T08:33:09.830Z,51.54
2018-03-25T08:35:51.759Z,53.55
2018-03-25T08:36:51.769Z,52.23
2018-03-25T08:37:51.574Z,50.05
2018-03-25T08:38:51.574Z,50.38
2018-03-25T08:39:51.486Z,51.92
2018-03-25T08:40:51.417Z,50.12
2018-03-25T08:41:51.264Z,50.43
2018-03-25T08:42:51.287Z,49.96
2018-03-25T08:43:51.113Z,48.35
2018-03-25T08:44:51.098Z,48.07
2018-03-25T08:45:50.990Z,49.12
2018-03-25T08:46:51.014Z,47.41
2018-03-25T08:47:50.822Z,47.10
2018-03-25T08:48:50.816Z,47.20
2018-03-25T08:49:50.680Z,47.87
2018-03-25T08:50:50.762Z,47.41
2018-03-25T08:51:50.535Z,47.03
2018-03-25T08:52:50.536Z,46.91
2018-03-25T08:53:50.372Z,46.72
2018-03-25T08:54:50.384Z,46.55
2018-03-25T08:55:50.275Z,46.14
2018-03-25T08:56:50.334Z,47.39
2018-03-25T08:57:50.084Z,48.44
2018-03-25T08:58:50.119Z,47.10
2018-03-25T08:59:49.921Z,46.24
2018-03-25T09:00:49.874Z,46.14
2018-03-25T09:01:49.779Z,47.30
2018-03-25T09:02:49.786Z,46.62
2018-03-25T09:03:49.641Z,45.50
2018-03-25T09:06:31.752Z,45.30
2018-03-25T09:07:31.797Z,44.73
2018-03-25T09:08:31.607Z,45.23
2018-03-25T09:09:31.600Z,44.46
2018-03-25T09:10:31.477Z,44.65
2018-03-25T09:11:31.433Z,44.73
2018-03-25T09:12:31.314Z,46.45
2018-03-25T09:13:31.331Z,45.23
2018-03-25T09:14:31.170Z,44.65
2018-03-25T09:15:31.134Z,43.98
2018-03-25T09:16:31.001Z,44.17
2018-03-25T09:17:31.100Z,44.75
2018-03-25T09:18:30.868Z,45.11
2018-03-25T09:19:30.859Z,46.62
2018-03-25T09:20:30.716Z,45.71
2018-03-25T09:21:30.767Z,45.06
2018-03-25T09:22:30.593Z,44.37
2018-03-25T09:23:30.569Z,44.27
2018-03-25T09:24:30.513Z,45.25
2018-03-25T09:25:30.477Z,44.56
2018-03-25T09:26:30.277Z,45.54
2018-03-25T09:27:30.298Z,44.41
2018-03-25T09:28:30.130Z,43.64
2018-03-25T09:29:30.235Z,44.37
2018-03-25T09:30:30.007Z,44.96
2018-03-25T09:33:12.246Z,44.38
2018-03-25T09:34:12.314Z,43.43
2018-03-25T09:35:12.130Z,43.07
2018-03-25T09:36:12.134Z,43.08
2018-03-25T09:37:11.980Z,43.07
2018-03-25T09:38:11.961Z,43.95
2018-03-25T09:39:11.816Z,42.87
2018-03-25T09:40:11.846Z,41.82
2018-03-25T09:41:11.691Z,43.16
2018-03-25T09:42:11.657Z,42.27
2018-03-25T09:43:11.540Z,41.91
2018-03-25T09:44:11.566Z,42.27
2018-03-25T09:45:11.397Z,43.43
2018-03-25T09:46:12.431Z,42.85
2018-03-25T09:47:11.243Z,42.39
2018-03-25T09:48:11.281Z,42.12
2018-03-25T09:49:11.099Z,41.56
2018-03-25T09:50:11.102Z,39.66
2018-03-25T09:51:10.966Z,39.56
2018-03-25T09:52:11.025Z,38.89
2018-03-25T09:53:10.819Z,38.81
2018-03-25T09:54:11.871Z,37.46
2018-03-25T09:55:10.672Z,38.68
2018-03-25T09:56:10.772Z,39.99
2018-03-25T09:57:10.559Z,40.78
2018-03-25T09:58:10.539Z,40.20
2018-03-25T09:59:10.408Z,39.74
2018-03-25T10:00:10.433Z,40.68
2018-03-25T10:01:10.280Z,41.26
2018-03-25T10:02:10.282Z,40.39
2018-03-25T10:03:10.121Z,39.54
2018-03-25T10:04:10.181Z,39.72
2018-03-25T10:05:09.990Z,40.47
2018-03-25T10:06:09.968Z,39.93
2018-03-25T10:07:09.844Z,40.12
2018-03-25T10:08:09.879Z,40.24
2018-03-25T10:09:09.772Z,39.99
2018-03-25T10:10:09.706Z,39.61
2018-03-25T10:11:09.562Z,40.07
2018-03-25T10:12:09.594Z,39.20
2018-03-25T10:13:09.544Z,38.49
2018-03-25T10:14:09.455Z,38.79
2018-03-25T10:15:09.279Z,39.36
2018-03-25T10:16:09.337Z,40.24
2018-03-25T10:17:09.142Z,39.86
2018-03-25T10:19:51.300Z,37.56
2018-03-25T10:20:51.466Z,37.26
2018-03-25T10:21:51.266Z,37.32
2018-03-25T10:22:51.131Z,38.59
2018-03-25T10:23:50.992Z,38.60
2018-03-25T10:24:51.065Z,38.14
2018-03-25T10:25:50.882Z,37.87
2018-03-25T10:26:50.844Z,36.06
2018-03-25T10:27:50.721Z,37.19
2018-03-25T10:28:50.779Z,38.04
2018-03-25T10:29:50.616Z,38.56
2018-03-25T10:30:50.571Z,37.18
2018-03-25T10:31:50.556Z,38.53
2018-03-25T10:32:50.488Z,38.26
2018-03-25T10:33:50.311Z,38.64
2018-03-25T10:34:50.441Z,37.68
2018-03-25T10:35:50.169Z,38.45
2018-03-25T10:36:50.224Z,37.56
2018-03-25T10:37:50.041Z,36.58
2018-03-25T10:38:50.000Z,36.35
2018-03-25T10:39:49.906Z,37.45
2018-03-25T10:40:49.917Z,39.08
2018-03-25T10:41:49.768Z,39.47
2018-03-25T10:42:49.729Z,40.62
2018-03-25T10:43:49.633Z,40.29
2018-03-25T10:44:49.668Z,41.16
2018-03-25T10:45:49.526Z,41.33
2018-03-25T10:46:49.553Z,41.83
2018-03-25T10:47:49.347Z,41.29
2018-03-25T10:48:49.373Z,41.20
2018-03-25T10:49:49.250Z,40.93
2018-03-25T10:50:49.264Z,39.97
2018-03-25T10:51:49.081Z,40.35
2018-03-25T10:52:49.088Z,40.88
2018-03-25T10:53:48.941Z,37.74
2018-03-25T10:56:30.822Z,37.06
2018-03-25T10:57:30.823Z,38.49
2018-03-25T10:58:30.683Z,38.47
2018-03-25T10:59:30.684Z,37.60
2018-03-25T11:00:30.525Z,39.31
2018-03-25T11:01:30.495Z,39.51
2018-03-25T11:02:30.380Z,39.70
2018-03-25T11:03:30.318Z,38.28
2018-03-25T11:04:30.247Z,37.59
2018-03-25T11:05:30.244Z,39.31
2018-03-25T11:06:30.121Z,39.41
2018-03-25T11:07:30.231Z,37.60
2018-03-25T11:08:29.973Z,38.29
2018-03-25T11:09:29.936Z,37.24
2018-03-25T11:10:29.808Z,37.10
2018-03-25T11:11:29.849Z,38.24
2018-03-25T11:24:53.130Z,36.77
2018-03-25T11:25:52.995Z,36.51
2018-03-25T11:26:53.037Z,35.93
2018-03-25T11:27:52.826Z,35.16
2018-03-25T11:28:52.818Z,35.52
2018-03-25T11:29:52.691Z,36.27
2018-03-25T11:30:52.751Z,36.19
2018-03-25T11:31:52.624Z,36.19
2018-03-25T11:32:52.474Z,35.93
2018-03-25T11:33:52.402Z,35.14
2018-03-25T11:34:52.420Z,35.25
2018-03-25T11:35:52.254Z,35.17
2018-03-25T11:36:52.261Z,35.16
2018-03-25T11:37:52.201Z,35.06
2018-03-25T11:38:52.141Z,33.91
2018-03-25T11:39:51.988Z,33.92
2018-03-25T11:40:51.943Z,34.45
2018-03-25T11:41:51.902Z,35.91
2018-03-25T11:42:51.779Z,39.12
2018-03-25T11:43:51.712Z,41.78
2018-03-25T11:44:51.779Z,43.01
2018-03-25T11:45:51.572Z,44.18
2018-03-25T11:46:51.686Z,42.98
2018-03-25T11:47:51.465Z,43.10
2018-03-25T11:48:51.398Z,41.79
2018-03-25T11:49:51.335Z,39.89
2018-03-25T11:50:51.337Z,39.61
2018-03-25T11:51:51.151Z,39.14
2018-03-25T11:52:51.106Z,39.22
2018-03-25T11:53:51.008Z,39.41
2018-03-25T11:54:51.019Z,38.09
2018-03-25T11:55:50.894Z,37.06
2018-03-25T11:56:50.828Z,35.04
2018-03-25T11:57:50.748Z,34.98
2018-03-25T11:58:50.737Z,34.50
2018-03-25T11:59:50.597Z,34.46
2018-03-25T12:00:50.541Z,35.22
2018-03-25T12:01:50.461Z,35.52
2018-03-25T12:02:50.459Z,35.62
2018-03-25T12:03:50.356Z,34.84
2018-03-25T12:04:50.394Z,35.04
2018-03-25T12:05:50.235Z,34.75
2018-03-25T12:06:50.184Z,35.30
2018-03-25T12:07:50.040Z,37.08
2018-03-25T12:08:50.094Z,39.54
2018-03-25T12:09:49.910Z,40.22
2018-03-25T12:10:49.892Z,39.95
2018-03-25T12:11:49.754Z,39.26
2018-03-25T12:12:49.692Z,38.91
2018-03-25T12:13:49.618Z,38.35
2018-03-25T12:14:49.666Z,38.91
2018-03-25T12:15:49.505Z,38.35
2018-03-25T12:16:49.413Z,37.89
2018-03-25T12:17:49.339Z,37.99
2018-03-25T12:18:49.346Z,39.01
2018-03-25T12:19:49.217Z,39.29
2018-03-25T12:20:49.243Z,40.22
2018-03-25T12:21:49.039Z,41.25
2018-03-25T12:22:49.052Z,41.80
2018-03-25T12:23:48.910Z,42.74
2018-03-25T12:24:48.856Z,43.90
2018-03-25T12:25:48.769Z,43.30
2018-03-25T12:26:48.783Z,44.73
2018-03-25T12:27:48.598Z,44.93
2018-03-25T12:28:48.653Z,45.12
2018-03-25T12:29:48.474Z,45.04
2018-03-25T12:30:48.491Z,45.23
2018-03-25T12:31:48.379Z,44.97
2018-03-25T12:32:48.304Z,44.40
2018-03-25T12:33:48.162Z,44.51
2018-03-25T12:34:48.180Z,44.78
2018-03-25T12:35:48.006Z,44.78
2018-03-25T12:38:29.819Z,43.53
2018-03-25T12:39:29.779Z,44.37
2018-03-25T12:40:29.689Z,44.37
2018-03-25T12:41:29.728Z,45.54
2018-03-25T12:42:29.537Z,45.16
2018-03-25T12:43:29.544Z,44.37
2018-03-25T12:44:29.380Z,43.97
2018-03-25T12:45:29.341Z,44.73
2018-03-25T12:46:29.221Z,44.45
2018-03-25T12:47:29.261Z,45.19
2018-03-25T12:48:29.081Z,46.84
2018-03-25T12:49:29.103Z,46.65
2018-03-25T12:50:28.908Z,44.93
2018-03-25T12:51:28.872Z,44.83
2018-03-25T12:52:28.810Z,46.55
2018-03-25T12:53:28.777Z,45.59
2018-03-25T12:54:28.600Z,45.69
2018-03-25T12:55:28.619Z,45.48
2018-03-25T12:56:28.452Z,46.62
2018-03-25T13:06:51.946Z,44.49
2018-03-25T13:07:51.918Z,44.78
2018-03-25T13:08:51.895Z,45.07
2018-03-25T13:09:51.761Z,45.07
2018-03-25T13:10:51.642Z,45.59
2018-03-25T13:11:51.637Z,45.48
2018-03-25T13:12:51.446Z,46.34
2018-03-25T13:13:51.440Z,46.82
2018-03-25T13:14:51.341Z,46.53
2018-03-25T13:15:51.441Z,46.62
2018-03-25T13:16:51.160Z,47.75
2018-03-25T13:17:51.151Z,47.75
2018-03-25T13:18:51.000Z,47.94
2018-03-25T13:19:50.976Z,48.33
2018-03-25T13:20:50.865Z,48.33
2018-03-25T13:21:50.876Z,48.33
2018-03-25T13:22:50.693Z,47.85
2018-03-25T13:23:50.695Z,47.85
2018-03-25T13:24:50.535Z,47.85
2018-03-25T13:25:50.536Z,47.78
2018-03-25T13:26:50.380Z,47.68
2018-03-25T13:27:50.410Z,46.84
2018-03-25T13:28:50.233Z,47.39
2018-03-25T13:29:50.218Z,47.58
2018-03-25T13:30:50.106Z,47.78
2018-03-25T13:31:50.240Z,47.80
2018-03-25T13:32:49.936Z,47.80
2018-03-25T13:33:49.927Z,46.82
2018-03-25T13:34:49.830Z,46.53
2018-03-25T13:35:49.768Z,46.53
2018-03-25T13:36:49.609Z,47.30
2018-03-25T13:37:49.654Z,46.91